Time;durP1;ratioP1;P1;durP2;ratioP2;P2;SDS_P1;SDS_P2;PMS_P1;PMS_P2;Temp;Humidity;BMP_temperature;BMP_pressure;BME280_temperature;BME280_humidity;BME280_pressure;Samples;Min_cycle;Max_cycle;Signal;HPM_P1;HPM_P2
2023/04/12 00:01:04;;;;;;;9.10;2.58;;;;;;;8.28;93.70;100507.75;5029714;28;20511;-77
2023/04/12 00:03:32;;;;;;;13.18;2.47;;;;;;;8.24;93.49;100511.34;5014065;28;20061;-76
2023/04/12 00:06:02;;;;;;;7.38;2.30;;;;;;;8.19;94.12;100494.75;5014242;28;20040;-77
2023/04/12 00:08:31;;;;;;;6.80;2.33;;;;;;;8.16;94.74;100494.81;5014139;28;20072;-77
2023/04/12 00:10:58;;;;;;;10.52;2.58;;;;;;;8.17;94.17;100486.84;5016400;28;20378;-76
2023/04/12 00:13:24;;;;;;;7.03;2.03;;;;;;;8.16;95.45;100482.47;5012888;28;20053;-77
2023/04/12 00:15:49;;;;;;;8.50;2.08;;;;;;;8.16;95.53;100478.97;5013220;28;20608;-77
2023/04/12 00:18:15;;;;;;;6.28;1.77;;;;;;;8.09;95.60;100474.72;4996296;28;20091;-77
2023/04/12 00:20:40;;;;;;;7.85;2.05;;;;;;;8.06;95.97;100461.53;5029350;28;20049;-77
2023/04/12 00:23:06;;;;;;;6.75;2.03;;;;;;;8.10;95.46;100455.34;5014605;28;20091;-77
2023/04/12 00:25:31;;;;;;;7.07;1.88;;;;;;;8.06;95.44;100445.72;4998396;28;20557;-77
2023/04/12 00:27:57;;;;;;;9.00;2.10;;;;;;;8.04;96.36;100434.38;5002093;28;20396;-78
2023/04/12 00:30:22;;;;;;;7.55;2.53;;;;;;;8.01;97.15;100427.38;5028800;28;20046;-77
2023/04/12 00:32:48;;;;;;;5.57;2.00;;;;;;;7.99;96.23;100429.16;5012747;28;20117;-77
2023/04/12 00:35:14;;;;;;;7.65;1.90;;;;;;;7.95;97.01;100416.91;5009056;28;20045;-77
2023/04/12 00:37:39;;;;;;;5.65;1.92;;;;;;;7.96;96.53;100416.00;5011303;28;20105;-77
2023/04/12 00:40:08;;;;;;;6.60;2.30;;;;;;;7.91;96.67;100404.69;5011775;28;20034;-76
2023/04/12 00:42:35;;;;;;;4.50;1.88;;;;;;;7.95;95.23;100387.91;5014063;28;20040;-76
2023/04/12 00:45:01;;;;;;;5.28;1.83;;;;;;;7.90;96.89;100390.63;5013136;28;20091;-76
2023/04/12 00:47:28;;;;;;;7.05;1.80;;;;;;;7.90;95.94;100371.31;5012288;28;20026;-76
2023/04/12 00:49:54;;;;;;;6.00;2.08;;;;;;;7.91;97.00;100376.56;4996061;28;20029;-76
2023/04/12 00:52:22;;;;;;;4.05;1.45;;;;;;;7.91;97.50;100367.78;5013508;28;20046;-76
2023/04/12 00:54:48;;;;;;;8.88;2.10;;;;;;;7.93;97.00;100369.47;5011652;28;20034;-76
2023/04/12 00:57:14;;;;;;;5.60;1.80;;;;;;;7.90;97.45;100372.19;5044894;28;20393;-76
2023/04/12 00:59:39;;;;;;;10.00;2.10;;;;;;;7.91;96.70;100354.59;5013403;28;20038;-76
2023/04/12 01:02:06;;;;;;;7.13;2.17;;;;;;;7.89;96.68;100343.22;5013356;28;20620;-76
2023/04/12 01:04:33;;;;;;;5.78;1.80;;;;;;;7.85;97.51;100336.25;5011644;28;20040;-77
2023/04/12 01:07:06;;;;;;;6.65;2.15;;;;;;;7.88;97.97;100333.56;5013247;28;20058;-77
2023/04/12 01:09:43;;;;;;;8.88;2.05;;;;;;;7.86;97.10;100309.88;5011722;28;20099;-77
2023/04/12 01:12:33;;;;;;;5.78;1.77;;;;;;;7.86;98.22;100299.34;5011989;28;20030;-77
2023/04/12 01:15:06;;;;;;;7.20;1.50;;;;;;;7.82;98.31;100302.91;5011695;28;20034;-77
2023/04/12 01:17:37;;;;;;;8.13;2.03;;;;;;;7.78;98.46;100288.06;5011821;28;20033;-77
2023/04/12 01:20:12;;;;;;;6.00;1.83;;;;;;;7.80;98.80;100278.34;5012778;28;20030;-77
2023/04/12 01:23:11;;;;;;;10.35;1.92;;;;;;;7.78;98.44;100276.66;5011584;28;20042;-77
2023/04/12 01:25:47;;;;;;;8.57;2.15;;;;;;;7.77;98.34;100270.50;5010776;28;20109;-77
2023/04/12 01:28:22;;;;;;;4.70;2.10;;;;;;;7.79;99.44;100258.19;5012634;28;20045;-76
2023/04/12 01:30:50;;;;;;;8.07;1.73;;;;;;;7.79;98.57;100250.28;5012548;28;20739;-76
2023/04/12 01:33:20;;;;;;;3.43;1.67;;;;;;;7.75;98.67;100248.59;5011644;28;20056;-77
2023/04/12 01:35:48;;;;;;;8.40;1.80;;;;;;;7.74;99.05;100244.22;4993025;28;20038;-77
2023/04/12 01:38:14;;;;;;;4.78;1.90;;;;;;;7.71;99.03;100239.84;5008196;28;20072;-77
2023/04/12 01:40:41;;;;;;;6.10;2.22;;;;;;;7.72;100.00;100219.66;5010156;28;20065;-77
2023/04/12 01:43:12;;;;;;;8.00;2.20;;;;;;;7.71;99.68;100212.63;5004778;28;20080;-77
2023/04/12 01:45:38;;;;;;;;;;;;;;;7.73;97.50;100213.47;5005845;28;20037;-77
2023/04/12 01:48:06;;;;;;;8.13;2.05;;;;;;;7.67;100.00;100206.56;5010386;28;20319;-76
2023/04/12 01:50:41;;;;;;;6.15;2.35;;;;;;;7.68;99.77;100197.75;5011272;28;20030;-76
2023/04/12 01:53:12;;;;;;;13.02;2.33;;;;;;;7.67;99.44;100197.81;5011106;28;20433;-76
2023/04/12 01:55:44;;;;;;;7.05;2.10;;;;;;;7.72;99.39;100198.56;5011637;28;20033;-84
2023/04/12 01:58:11;;;;;;;6.53;2.03;;;;;;;7.68;99.82;100181.94;5015895;28;20495;-84
2023/04/12 02:00:37;;;;;;;6.50;2.03;;;;;;;7.68;98.88;100174.03;4994942;28;20052;-83
2023/04/12 02:03:04;;;;;;;4.70;1.95;;;;;;;7.68;99.50;100168.75;5011601;28;20509;-84
2023/04/12 02:05:32;;;;;;;5.70;2.33;;;;;;;7.68;100.00;100162.63;5012674;28;20025;-77
2023/04/12 02:08:01;;;;;;;7.72;2.17;;;;;;;7.68;99.62;100152.09;5010588;28;20575;-77
2023/04/12 02:10:30;;;;;;;8.15;2.15;;;;;;;7.68;99.59;100152.09;5009425;28;20052;-76
2023/04/12 02:13:00;;;;;;;5.25;1.90;;;;;;;7.68;99.52;100137.13;5010784;28;20033;-76
2023/04/12 02:15:27;;;;;;;5.38;1.75;;;;;;;7.68;99.79;100138.91;5010633;28;20536;-76
2023/04/12 02:17:53;;;;;;;9.13;2.55;;;;;;;7.64;99.33;100113.50;5010757;28;20093;-76
2023/04/12 02:20:20;;;;;;;4.35;1.65;;;;;;;7.67;99.39;100113.47;5009581;28;20142;-76
2023/04/12 02:22:45;;;;;;;8.20;2.40;;;;;;;7.65;99.20;100110.00;5011115;28;20060;-77
2023/04/12 02:25:11;;;;;;;8.43;2.38;;;;;;;7.63;100.00;100095.97;5010418;28;20124;-76
2023/04/12 02:27:37;;;;;;;7.30;2.00;;;;;;;7.61;99.56;100093.38;5010623;28;20536;-77
2023/04/12 02:30:04;;;;;;;5.53;1.77;;;;;;;7.59;100.00;100100.47;5010333;28;20124;-77
2023/04/12 02:32:32;;;;;;;7.15;2.45;;;;;;;7.61;100.00;100105.69;5010482;28;20124;-77
2023/04/12 02:35:01;;;;;;;5.30;1.90;;;;;;;7.59;100.00;100083.75;4994390;28;20030;-77
2023/04/12 02:37:28;;;;;;;5.40;1.77;;;;;;;7.56;100.00;100079.44;4994730;28;20026;-76
2023/04/12 02:39:55;;;;;;;4.82;1.80;;;;;;;7.58;100.00;100072.38;5009329;28;20045;-76
2023/04/12 02:42:22;;;;;;;5.10;1.88;;;;;;;7.66;99.97;100057.25;5013623;28;20377;-76
2023/04/12 02:44:48;;;;;;;5.38;1.70;;;;;;;7.61;99.87;100045.09;4994235;28;20044;-77
2023/04/12 02:47:14;;;;;;;5.90;1.80;;;;;;;7.59;100.00;100049.50;5010521;28;20531;-77
2023/04/12 02:49:43;;;;;;;4.95;1.60;;;;;;;7.56;100.00;100037.28;5010188;28;20068;-77
2023/04/12 02:52:11;;;;;;;7.50;2.15;;;;;;;7.53;100.00;100038.22;4994691;28;20091;-77
2023/04/12 02:54:52;;;;;;;4.43;1.95;;;;;;;7.55;99.39;100027.66;5009687;28;20049;-76
2023/04/12 02:57:20;;;;;;;6.72;1.92;;;;;;;7.56;100.00;100012.69;4994231;28;20030;-76
2023/04/12 02:59:47;;;;;;;9.02;2.30;;;;;;;7.55;99.92;100003.94;5010239;28;20034;-76
2023/04/12 03:02:38;;;;;;;6.50;1.70;;;;;;;7.56;99.61;99989.00;5036020;28;20066;-76
2023/04/12 03:05:07;;;;;;;7.07;2.13;;;;;;;7.54;100.00;99989.00;5010250;28;20025;-77
2023/04/12 03:07:40;;;;;;;7.15;1.70;;;;;;;7.58;100.00;99989.81;4994889;28;20081;-77
2023/04/12 03:10:10;;;;;;;5.47;1.70;;;;;;;7.56;100.00;99979.31;5013131;28;20038;-76
2023/04/12 03:12:40;;;;;;;3.45;1.65;;;;;;;7.55;100.00;99982.84;5014139;28;20022;-76
2023/04/12 03:15:13;;;;;;;4.63;1.52;;;;;;;7.57;99.96;99975.78;5027771;28;20034;-76
2023/04/12 03:17:41;;;;;;;3.15;1.70;;;;;;;7.54;100.00;99963.56;4997834;28;20038;-77
2023/04/12 03:20:08;;;;;;;6.55;1.70;;;;;;;7.51;100.00;99966.25;5013874;28;20104;-77
2023/04/12 03:22:36;;;;;;;6.53;1.70;;;;;;;7.50;100.00;99953.13;5014072;28;20396;-77
2023/04/12 03:25:03;;;;;;;4.15;1.70;;;;;;;7.51;100.00;99963.59;4997378;28;20030;-78
2023/04/12 03:27:29;;;;;;;4.00;1.70;;;;;;;7.50;100.00;99963.66;5013981;28;20493;-77
2023/04/12 03:29:55;;;;;;;3.38;1.50;;;;;;;7.45;100.00;99955.00;5022292;28;20040;-77
2023/04/12 03:32:23;;;;;;;3.70;1.40;;;;;;;7.41;100.00;99954.19;4994640;28;20030;-77
2023/04/12 03:34:49;;;;;;;6.30;1.98;;;;;;;7.41;100.00;99946.28;5036775;28;20026;-78
2023/04/12 03:37:18;;;;;;;3.47;1.65;;;;;;;7.43;100.00;99944.47;5044955;28;20073;-76
2023/04/12 03:39:46;;;;;;;3.33;1.60;;;;;;;7.40;100.00;99936.66;5011496;28;20123;-76
2023/04/12 03:42:14;;;;;;;7.43;2.25;;;;;;;7.39;100.00;99940.19;5013507;28;20045;-76
2023/04/12 03:44:40;;;;;;;5.95;1.63;;;;;;;7.36;100.00;99923.59;4997040;28;20125;-77
2023/04/12 03:47:10;;;;;;;6.05;1.52;;;;;;;7.37;100.00;99923.56;5013000;28;20072;-76
2023/04/12 03:49:39;;;;;;;4.63;1.60;;;;;;;7.38;100.00;99927.91;5013170;28;20046;-77
2023/04/12 03:52:10;;;;;;;5.13;1.30;;;;;;;7.37;100.00;99913.03;5030271;28;20373;-75
2023/04/12 03:54:36;;;;;;;5.03;1.42;;;;;;;7.35;100.00;99899.03;5013175;28;20451;-75
2023/04/12 03:57:06;;;;;;;3.30;1.48;;;;;;;7.33;100.00;99896.41;5013065;28;20477;-75
2023/04/12 03:59:42;;;;;;;4.88;1.83;;;;;;;7.32;100.00;99875.41;4991212;28;20052;-75
2023/04/12 04:02:08;;;;;;;5.50;1.60;;;;;;;7.32;100.00;99894.69;4984781;28;20048;-75
2023/04/12 04:04:39;;;;;;;6.43;1.40;;;;;;;7.32;100.00;99878.91;5028462;28;20121;-76
2023/04/12 04:07:10;;;;;;;5.55;1.63;;;;;;;7.33;100.00;99866.59;5012829;28;20152;-75
2023/04/12 04:09:43;;;;;;;3.63;1.38;;;;;;;7.36;100.00;99865.66;4997739;28;20470;-75
2023/04/12 04:12:10;;;;;;;4.28;1.52;;;;;;;7.37;100.00;99872.63;4996926;28;20061;-75
2023/04/12 04:14:40;;;;;;;5.68;1.60;;;;;;;7.39;100.00;99853.25;5013624;28;20026;-75
2023/04/12 04:17:09;;;;;;;2.67;1.40;;;;;;;7.37;100.00;99848.94;4996405;28;20411;-75
2023/04/12 04:19:34;;;;;;;5.10;1.55;;;;;;;7.36;100.00;99852.47;5012162;28;20037;-75
2023/04/12 04:22:01;;;;;;;3.78;1.63;;;;;;;7.39;100.00;99855.88;5011563;28;20389;-75
2023/04/12 04:24:27;;;;;;;3.97;1.40;;;;;;;7.38;100.00;99841.00;5012123;28;20322;-74
2023/04/12 04:26:57;;;;;;;3.05;1.40;;;;;;;7.38;100.00;99841.00;5011810;28;20040;-75
2023/04/12 04:29:25;;;;;;;3.45;1.38;;;;;;;7.33;100.00;99833.22;5012184;28;20140;-74
2023/04/12 04:31:52;;;;;;;4.65;1.73;;;;;;;7.36;100.00;99837.53;5011933;28;20158;-73
2023/04/12 04:34:18;;;;;;;3.25;1.30;;;;;;;7.35;100.00;99833.19;4995993;28;20117;-75
2023/04/12 04:36:46;;;;;;;3.40;1.40;;;;;;;7.34;100.00;99828.81;4996208;28;20041;-74
2023/04/12 04:39:19;;;;;;;4.85;1.40;;;;;;;7.33;100.00;99819.19;5010823;28;20393;-76
2023/04/12 04:41:45;;;;;;;4.32;1.60;;;;;;;7.34;100.00;99826.16;4995864;28;20037;-74
2023/04/12 04:44:18;;;;;;;3.60;1.65;;;;;;;7.35;100.00;99817.38;5012297;28;20100;-74
2023/04/12 04:46:51;;;;;;;3.30;1.20;;;;;;;7.34;100.00;99813.00;5016038;28;20452;-74
2023/04/12 04:49:17;;;;;;;3.83;1.50;;;;;;;7.35;100.00;99811.25;5013480;28;20101;-74
2023/04/12 04:51:42;;;;;;;6.55;1.42;;;;;;;7.33;100.00;99813.91;5012372;28;20034;-74
2023/04/12 04:54:10;;;;;;;3.25;1.77;;;;;;;7.35;100.00;99819.16;4996041;28;20041;-74
2023/04/12 04:56:39;;;;;;;7.22;1.70;;;;;;;7.35;100.00;99819.16;5012031;28;20017;-74
2023/04/12 04:59:06;;;;;;;4.28;1.50;;;;;;;7.35;100.00;99817.38;4995936;28;20337;-74
2023/04/12 05:01:35;;;;;;;2.63;1.38;;;;;;;7.37;100.00;99818.22;5011869;28;20030;-74
2023/04/12 05:04:02;;;;;;;2.50;1.35;;;;;;;7.32;100.00;99807.78;5011906;28;20038;-74
2023/04/12 05:06:27;;;;;;;5.45;1.70;;;;;;;7.39;100.00;99800.56;5012105;28;20026;-74
2023/04/12 05:08:55;;;;;;;6.38;2.78;;;;;;;7.35;100.00;99784.91;4995460;28;20093;-74
2023/04/12 05:11:21;;;;;;;5.47;1.70;;;;;;;7.37;100.00;99794.50;4995469;28;20091;-74
2023/04/12 05:13:48;;;;;;;4.43;1.65;;;;;;;7.36;100.00;99798.03;5012028;28;20037;-74
2023/04/12 05:16:13;;;;;;;5.03;1.73;;;;;;;7.41;100.00;99796.16;4995259;28;20482;-74
2023/04/12 05:18:39;;;;;;;5.38;1.60;;;;;;;7.41;100.00;99793.50;4995447;28;20071;-74
2023/04/12 05:21:05;;;;;;;5.22;1.80;;;;;;;7.40;100.00;99783.03;5011420;28;20492;-74
2023/04/12 05:23:42;;;;;;;3.15;1.77;;;;;;;7.40;100.00;99783.88;5011452;28;20046;-75
2023/04/12 05:26:10;;;;;;;5.03;2.00;;;;;;;7.40;100.00;99793.56;5011474;28;20041;-74
2023/04/12 05:28:36;;;;;;;4.63;1.80;;;;;;;7.42;100.00;99784.72;5011517;28;20037;-74
2023/04/12 05:31:01;;;;;;;2.45;1.65;;;;;;;7.40;100.00;99786.53;5011542;28;20042;-74
2023/04/12 05:33:35;;;;;;;7.72;1.88;;;;;;;7.40;100.00;99773.34;5011234;28;20062;-74
2023/04/12 05:36:01;;;;;;;3.03;1.58;;;;;;;7.41;100.00;99784.75;5011122;28;20366;-74
2023/04/12 05:38:28;;;;;;;2.60;1.60;;;;;;;7.44;100.00;99774.13;4995338;28;20026;-83
2023/04/12 05:40:57;;;;;;;4.82;1.70;;;;;;;7.48;100.00;99776.66;5012938;28;20045;-83
2023/04/12 05:43:22;;;;;;;4.07;1.77;;;;;;;7.50;100.00;99771.34;5011822;28;20034;-83
2023/04/12 05:45:50;;;;;;;7.38;2.10;;;;;;;7.51;100.00;99770.44;5007277;28;20116;-83
2023/04/12 05:48:18;;;;;;;3.15;1.50;;;;;;;7.51;100.00;99775.69;5021787;28;20516;-83
2023/04/12 05:50:52;;;;;;;5.63;1.80;;;;;;;7.55;100.00;99777.34;5008061;28;20046;-83
2023/04/12 05:53:17;;;;;;;3.67;1.55;;;;;;;7.62;100.00;99778.94;4991823;28;20039;-83
2023/04/12 05:55:44;;;;;;;2.45;1.55;;;;;;;7.58;100.00;99771.13;5007360;28;20030;-83
2023/04/12 05:58:09;;;;;;;3.50;1.50;;;;;;;7.61;100.00;99771.06;5000604;28;20434;-83
2023/04/12 06:00:35;;;;;;;8.80;2.00;;;;;;;7.57;100.00;99766.75;4990836;28;20096;-83
2023/04/12 06:03:01;;;;;;;9.77;2.00;;;;;;;7.53;100.00;99761.56;4989285;28;20049;-83
2023/04/12 06:05:27;;;;;;;1.83;1.40;;;;;;;7.57;100.00;99766.75;5005271;28;20026;-83
2023/04/12 06:07:52;;;;;;;7.35;1.73;;;;;;;7.58;100.00;99761.47;5005783;28;20054;-83
2023/04/12 06:10:18;;;;;;;5.07;1.90;;;;;;;7.65;100.00;99768.28;4988737;28;20037;-83
2023/04/12 06:12:50;;;;;;;4.43;1.50;;;;;;;7.65;100.00;99768.28;5005264;28;20042;-83
2023/04/12 06:15:18;;;;;;;4.55;2.00;;;;;;;7.68;100.00;99768.22;5005282;28;20496;-83
2023/04/12 06:17:51;;;;;;;4.25;2.03;;;;;;;7.67;100.00;99769.13;4989941;28;20469;-83
2023/04/12 06:20:17;;;;;;;3.92;1.80;;;;;;;7.69;100.00;99772.59;5006398;28;20045;-83
2023/04/12 06:22:43;;;;;;;3.80;1.58;;;;;;;7.68;100.00;99760.31;5005514;28;20029;-83
2023/04/12 06:25:09;;;;;;;4.63;1.70;;;;;;;7.69;100.00;99758.53;5005285;28;20041;-83
2023/04/12 06:27:35;;;;;;;5.07;2.00;;;;;;;7.72;100.00;99761.09;4973558;28;20037;-83
2023/04/12 06:30:00;;;;;;;3.78;1.80;;;;;;;7.69;100.00;99759.41;5005781;28;20061;-84
2023/04/12 06:32:30;;;;;;;3.53;1.83;;;;;;;7.68;100.00;99762.06;5005627;28;20038;-83
2023/04/12 06:34:58;;;;;;;5.05;1.90;;;;;;;7.70;100.00;99773.44;5004870;28;21488;-83
2023/04/12 06:37:23;;;;;;;4.82;1.80;;;;;;;7.73;100.00;99773.34;4989013;28;20041;-83
2023/04/12 06:39:49;;;;;;;3.08;1.85;;;;;;;7.70;100.00;99768.19;5006179;28;20053;-83
2023/04/12 06:42:16;;;;;;;3.60;2.10;;;;;;;7.73;100.00;99773.34;5006753;28;20373;-83
2023/04/12 06:44:42;;;;;;;3.38;2.10;;;;;;;7.72;100.00;99772.50;5007000;28;20041;-82
2023/04/12 06:47:08;;;;;;;4.95;2.10;;;;;;;7.75;100.00;99764.50;5009307;28;20024;-83
2023/04/12 06:49:33;;;;;;;4.93;2.30;;;;;;;7.80;100.00;99756.47;5011264;28;20393;-82
2023/04/12 06:51:59;;;;;;;7.53;2.70;;;;;;;7.82;100.00;99764.34;5011127;28;20034;-82
2023/04/12 06:54:24;;;;;;;3.00;2.20;;;;;;;7.85;100.00;99772.16;5033454;28;20038;-82
2023/04/12 06:56:50;;;;;;;2.50;2.00;;;;;;;7.86;100.00;99760.69;5014941;28;20041;-82
2023/04/12 06:59:16;;;;;;;4.05;2.17;;;;;;;7.92;100.00;99766.66;5015870;28;20562;-82
2023/04/12 07:01:42;;;;;;;4.25;2.13;;;;;;;7.95;100.00;99760.44;5015618;28;20057;-82
2023/04/12 07:04:07;;;;;;;4.45;2.33;;;;;;;7.97;100.00;99762.13;5015580;28;20180;-82
2023/04/12 07:06:33;;;;;;;6.45;2.22;;;;;;;8.03;100.00;99774.25;5015722;28;20064;-82
2023/04/12 07:08:58;;;;;;;3.55;2.10;;;;;;;8.01;100.00;99770.84;5015715;28;20050;-82
2023/04/12 07:11:24;;;;;;;3.92;2.00;;;;;;;8.05;100.00;99766.31;5012535;28;20108;-82
2023/04/12 07:13:50;;;;;;;4.85;2.10;;;;;;;8.06;100.00;99775.94;5008962;28;20064;-81
2023/04/12 07:16:16;;;;;;;4.70;2.00;;;;;;;8.05;100.00;99769.81;5009364;28;20484;-82
2023/04/12 07:18:42;;;;;;;8.15;2.95;;;;;;;8.06;100.00;99768.94;5008131;28;20072;-81
2023/04/12 07:21:07;;;;;;;4.43;2.03;;;;;;;8.10;100.00;99765.28;5007587;28;20034;-82
2023/04/12 07:23:33;;;;;;;12.35;2.67;;;;;;;8.10;100.00;99770.53;5007846;28;20710;-82
2023/04/12 07:26:00;;;;;;;3.85;2.40;;;;;;;8.17;100.00;99780.00;5008229;28;20072;-81
2023/04/12 07:28:26;;;;;;;4.90;2.28;;;;;;;8.19;100.00;99770.28;5008709;28;20128;-82
2023/04/12 07:30:51;;;;;;;4.90;2.55;;;;;;;8.21;100.00;99762.34;5008800;28;20116;-82
2023/04/12 07:33:17;;;;;;;7.38;2.30;;;;;;;8.24;100.00;99769.31;5009069;28;20121;-82
2023/04/12 07:35:42;;;;;;;4.75;2.38;;;;;;;8.30;100.00;99769.09;5009484;28;20093;-81
2023/04/12 07:38:08;;;;;;;7.75;2.28;;;;;;;8.36;100.00;99769.78;5009862;28;20124;-82
2023/04/12 07:40:33;;;;;;;4.78;2.50;;;;;;;8.38;100.00;99759.19;5009775;28;20068;-82
2023/04/12 07:42:59;;;;;;;6.55;2.67;;;;;;;8.41;100.00;99759.16;5008273;28;21861;-82
2023/04/12 07:45:25;;;;;;;6.38;2.47;;;;;;;8.49;100.00;99751.00;5007550;28;20048;-82
2023/04/12 07:47:50;;;;;;;6.07;2.40;;;;;;;8.55;100.00;99753.44;5008009;28;20073;-82
2023/04/12 07:50:16;;;;;;;8.77;2.95;;;;;;;8.56;100.00;99757.81;5008199;28;20045;-82
2023/04/12 07:52:41;;;;;;;7.28;3.40;;;;;;;8.59;100.00;99752.44;5008360;28;20092;-82
2023/04/12 07:55:08;;;;;;;6.63;2.55;;;;;;;8.63;100.00;99747.91;5009160;28;20038;-81
2023/04/12 07:57:34;;;;;;;6.68;2.50;;;;;;;8.65;100.00;99739.03;4991932;28;20048;-82
2023/04/12 08:00:00;;;;;;;9.52;2.72;;;;;;;8.68;100.00;99744.22;5012218;28;20034;-82
2023/04/12 08:02:25;;;;;;;8.90;2.70;;;;;;;8.70;100.00;99754.72;5014307;28;20057;-81
2023/04/12 08:04:54;;;;;;;7.47;2.75;;;;;;;8.72;100.00;99752.91;5011318;28;20048;-82
2023/04/12 08:07:23;;;;;;;8.82;2.67;;;;;;;8.69;100.00;99747.72;5008583;28;20108;-82
2023/04/12 08:09:49;;;;;;;10.82;2.67;;;;;;;8.73;100.00;99749.34;5008424;28;20489;-82
2023/04/12 08:12:15;;;;;;;6.72;2.45;;;;;;;8.66;100.00;99753.97;5008916;28;20034;-82
2023/04/12 08:14:41;;;;;;;10.55;2.45;;;;;;;8.62;100.00;99760.25;5009441;28;20485;-81
2023/04/12 08:17:06;;;;;;;5.97;2.08;;;;;;;8.55;100.00;99767.47;5009167;28;20061;-82
2023/04/12 08:19:32;;;;;;;11.73;3.33;;;;;;;8.49;100.00;99756.28;5009260;28;20041;-82
2023/04/12 08:21:57;;;;;;;16.10;3.75;;;;;;;8.52;100.00;99761.44;5009220;28;20037;-82
2023/04/12 08:24:23;;;;;;;11.40;2.47;;;;;;;8.51;100.00;99759.72;5008641;28;20038;-83
2023/04/12 08:26:52;;;;;;;8.93;3.05;;;;;;;8.46;100.00;99756.38;5007138;28;20389;-82
2023/04/12 08:29:17;;;;;;;12.00;2.47;;;;;;;8.53;100.00;99760.53;5007154;28;20036;-82
2023/04/12 08:31:43;;;;;;;6.05;2.50;;;;;;;8.53;100.00;99763.16;5007397;28;20037;-82
2023/04/12 08:34:09;;;;;;;8.27;3.40;;;;;;;8.56;100.00;99768.38;5007144;28;20048;-82
2023/04/12 08:36:34;;;;;;;10.77;3.22;;;;;;;8.56;100.00;99763.94;5008357;28;20107;-82
2023/04/12 08:39:00;;;;;;;8.75;2.90;;;;;;;8.56;100.00;99765.72;5008664;28;20038;-82
2023/04/12 08:41:26;;;;;;;10.95;3.85;;;;;;;8.59;100.00;99747.16;5009825;28;20030;-82
2023/04/12 08:43:52;;;;;;;12.02;2.85;;;;;;;8.67;100.00;99749.53;5012826;28;20034;-82
2023/04/12 08:46:17;;;;;;;10.82;3.67;;;;;;;8.76;100.00;99747.47;5011819;28;20401;-82
2023/04/12 08:48:45;;;;;;;8.40;3.25;;;;;;;8.91;100.00;99740.84;5008048;28;20042;-82
2023/04/12 08:51:13;;;;;;;9.93;3.40;;;;;;;9.09;100.00;99730.59;5012953;28;20588;-82
2023/04/12 08:53:39;;;;;;;14.02;3.40;;;;;;;9.23;100.00;99755.63;4999102;28;20034;-82
2023/04/12 08:56:10;;;;;;;11.15;3.25;;;;;;;9.34;100.00;99752.59;5009603;28;21324;-82
2023/04/12 08:58:38;;;;;;;;;;;;;;;9.47;100.00;99739.88;5004853;28;20034;-82
2023/04/12 09:01:12;;;;;;;13.20;3.33;;;;;;;9.61;100.00;99742.00;5009813;28;19964;-82
2023/04/12 09:03:38;;;;;;;22.83;3.20;;;;;;;9.73;100.00;99746.84;5008845;28;20034;-82
2023/04/12 09:06:05;;;;;;;11.52;2.60;;;;;;;9.80;100.00;99756.28;5009898;28;20026;-82
2023/04/12 09:08:30;;;;;;;15.18;3.53;;;;;;;9.86;100.00;99742.84;5012677;28;20056;-83
2023/04/12 09:10:57;;;;;;;15.07;3.08;;;;;;;10.02;99.89;99747.59;5013035;28;20030;-82
2023/04/12 09:13:33;;;;;;;18.80;3.53;;;;;;;10.13;99.06;99746.25;5010775;28;20034;-82
2023/04/12 09:15:59;;;;;;;18.63;4.65;;;;;;;10.26;94.54;99737.84;5039245;28;20073;-73
2023/04/12 09:18:26;;;;;;;14.13;3.20;;;;;;;10.40;94.62;99735.56;5013119;28;20057;-73
2023/04/12 09:21:06;;;;;;;18.35;4.60;;;;;;;10.51;94.94;99728.09;5011507;28;20042;-74
2023/04/12 09:23:31;;;;;;;22.42;4.90;;;;;;;10.59;92.78;99725.13;5013012;28;20038;-74
2023/04/12 09:25:57;;;;;;;14.60;3.70;;;;;;;10.65;94.38;99721.38;5011528;28;20084;-74
2023/04/12 09:28:24;;;;;;;13.57;4.10;;;;;;;10.70;93.73;99736.13;5012957;28;20042;-74
2023/04/12 09:30:51;;;;;;;18.25;4.40;;;;;;;10.63;90.49;99728.50;5012648;28;20034;-74
2023/04/12 09:33:18;;;;;;;16.77;4.10;;;;;;;10.51;90.13;99730.72;5011563;28;20121;-75
2023/04/12 09:35:44;;;;;;;20.92;4.57;;;;;;;10.49;93.15;99726.41;5011312;28;20033;-75
2023/04/12 09:38:09;;;;;;;18.92;4.68;;;;;;;10.47;92.66;99729.13;5012710;28;20038;-74
2023/04/12 09:40:36;;;;;;;18.38;5.32;;;;;;;10.54;93.11;99729.75;5012458;28;20072;-75
2023/04/12 09:43:02;;;;;;;17.60;5.80;;;;;;;10.61;93.73;99730.34;5012579;28;20129;-75
2023/04/12 09:45:30;;;;;;;19.05;4.60;;;;;;;10.67;90.91;99709.78;5010537;28;20042;-74
2023/04/12 09:47:56;;;;;;;17.02;4.85;;;;;;;10.85;92.93;99718.75;5012415;28;20493;-74
2023/04/12 09:50:25;;;;;;;18.55;4.50;;;;;;;10.98;90.28;99720.00;5010881;28;20025;-74
2023/04/12 09:52:52;;;;;;;20.55;5.20;;;;;;;10.98;85.67;99708.56;4998867;28;20428;-75
2023/04/12 09:55:20;;;;;;;18.33;4.28;;;;;;;11.00;85.65;99706.69;5010783;28;20109;-75
2023/04/12 09:57:49;;;;;;;25.55;5.90;;;;;;;10.97;82.78;99702.38;5012451;28;20052;-75
2023/04/12 10:00:18;;;;;;;24.85;4.75;;;;;;;10.88;82.23;99692.19;5011946;28;20113;-75
2023/04/12 10:02:54;;;;;;;17.70;4.43;;;;;;;10.86;85.45;99709.06;5010756;28;20088;-75
2023/04/12 10:05:23;;;;;;;23.33;4.78;;;;;;;10.71;84.63;99707.91;5010547;28;20040;-75
2023/04/12 10:07:49;;;;;;;20.73;4.30;;;;;;;10.69;86.94;99705.31;4994773;28;20066;-75
2023/04/12 10:10:16;;;;;;;25.35;4.43;;;;;;;10.62;86.04;99716.19;5010770;28;20037;-75
2023/04/12 10:12:44;;;;;;;18.75;4.25;;;;;;;10.50;83.69;99710.47;5004216;28;20042;-76
2023/04/12 10:15:15;;;;;;;19.23;3.95;;;;;;;10.46;83.82;99708.88;5011981;28;20088;-76
2023/04/12 10:17:46;;;;;;;17.00;4.22;;;;;;;10.41;82.55;99709.94;5011855;28;20164;-76
2023/04/12 10:20:17;;;;;;;17.17;4.80;;;;;;;10.42;84.33;99712.56;5010158;28;20036;-76
2023/04/12 10:22:45;;;;;;;20.65;4.82;;;;;;;10.44;84.50;99715.16;5012357;28;20037;-76
2023/04/12 10:25:22;;;;;;;20.45;4.55;;;;;;;10.54;83.66;99713.88;5010474;28;20414;-76
2023/04/12 10:27:48;;;;;;;19.45;4.15;;;;;;;10.69;87.78;99699.16;5011022;28;20045;-75
2023/04/12 10:30:23;;;;;;;13.52;3.70;;;;;;;10.89;86.18;99700.97;5010463;28;20045;-76
2023/04/12 10:33:10;;;;;;;23.92;4.63;;;;;;;10.92;79.73;99695.53;5010868;28;20072;-76
2023/04/12 10:36:09;;;;;;;22.08;4.63;;;;;;;11.04;77.33;99691.53;5006850;28;20046;-76
2023/04/12 10:39:08;;;;;;;19.25;3.53;;;;;;;11.03;76.91;99708.34;5011852;28;20367;-76
2023/04/12 10:41:33;;;;;;;14.68;2.83;;;;;;;11.02;71.00;99719.88;5012306;28;20048;-76
2023/04/12 10:44:27;;;;;;;20.25;3.58;;;;;;;10.95;70.26;99711.31;5009752;28;20034;-76
2023/04/12 10:46:53;;;;;;;16.80;3.90;;;;;;;10.96;72.86;99716.53;5020495;28;20046;-75
2023/04/12 10:49:18;;;;;;;15.50;3.33;;;;;;;10.94;70.25;99726.34;5010434;28;20141;-84
2023/04/12 10:52:07;;;;;;;22.60;3.28;;;;;;;10.94;68.98;99714.88;4993839;28;20382;-84
2023/04/12 10:54:34;;;;;;;18.05;3.80;;;;;;;10.86;66.51;99719.66;5040709;28;20074;-83
2023/04/12 10:57:01;;;;;;;16.70;3.67;;;;;;;10.79;69.73;99724.31;5012390;28;20022;-84
2023/04/12 10:59:55;;;;;;;18.23;3.15;;;;;;;10.78;69.40;99722.63;5010761;28;20034;-84
2023/04/12 11:02:21;;;;;;;20.45;3.25;;;;;;;10.73;70.42;99722.78;4995023;28;20164;-84
2023/04/12 11:05:04;;;;;;;28.88;3.13;;;;;;;10.70;69.86;99724.69;4997183;28;20030;-84
2023/04/12 11:07:52;;;;;;;14.02;2.95;;;;;;;10.67;70.12;99723.03;5010034;28;20081;-84
2023/04/12 11:10:47;;;;;;;12.70;3.90;;;;;;;10.76;71.23;99727.09;5009383;28;20045;-84
2023/04/12 11:13:28;;;;;;;19.13;3.58;;;;;;;10.67;70.41;99720.38;5009588;28;20045;-84
2023/04/12 11:15:58;;;;;;;14.38;3.15;;;;;;;10.77;72.38;99727.03;5011776;28;20034;-83
2023/04/12 11:18:24;;;;;;;22.88;4.38;;;;;;;10.85;72.33;99737.31;5010641;28;20034;-83
2023/04/12 11:20:51;;;;;;;12.45;3.33;;;;;;;10.74;71.82;99740.41;5010752;28;20116;-83
2023/04/12 11:23:17;;;;;;;15.43;3.88;;;;;;;10.65;73.73;99735.47;5011913;28;20452;-83
2023/04/12 11:25:50;;;;;;;17.65;3.63;;;;;;;10.60;72.71;99733.94;4998830;28;20026;-83
2023/04/12 11:28:17;;;;;;;14.77;3.47;;;;;;;10.53;74.05;99730.66;5011642;28;20547;-83
2023/04/12 11:30:54;;;;;;;17.25;4.03;;;;;;;10.52;75.46;99735.09;5013425;28;20040;-83
2023/04/12 11:33:38;;;;;;;25.40;5.20;;;;;;;10.55;77.03;99736.75;5015767;28;20034;-83
2023/04/12 11:36:06;;;;;;;19.30;4.78;;;;;;;10.50;79.14;99736.94;5009437;28;20033;-83
2023/04/12 11:38:34;;;;;;;14.90;3.92;;;;;;;10.44;75.80;99725.75;5009481;28;20030;-83